createdAt,value
2019-04-23T00:01:14.778Z,14.40
2019-04-23T00:03:41.977Z,14.40
2019-04-23T00:08:55.409Z,14.10
2019-04-23T00:11:15.727Z,14.20
2019-04-23T00:16:21.509Z,14.10
2019-04-23T00:18:58.891Z,14.00
2019-04-23T00:21:44.381Z,13.90
2019-04-23T00:24:38.357Z,13.90
2019-04-23T00:27:08.412Z,13.80
2019-04-23T00:29:40.078Z,13.80
2019-04-23T00:32:01.210Z,13.80
2019-04-23T00:34:42.511Z,13.70
2019-04-23T00:37:12.995Z,13.60
2019-04-23T00:39:40.754Z,13.70
2019-04-23T00:42:12.044Z,13.50
2019-04-23T00:47:11.949Z,13.40
2019-04-23T00:49:53.340Z,13.40
2019-04-23T00:52:20.434Z,13.40
2019-04-23T00:54:50.504Z,13.40
2019-04-23T00:59:57.803Z,13.30
2019-04-23T01:02:23.779Z,13.50
2019-04-23T01:04:59.682Z,13.40
2019-04-23T01:07:24.595Z,13.30
2019-04-23T01:10:02.769Z,13.20
2019-04-23T01:12:39.334Z,13.20
2019-04-23T01:15:07.483Z,13.30
2019-04-23T01:17:42.643Z,13.20
2019-04-23T01:20:24.616Z,13.30
2019-04-23T01:22:33.743Z,13.20
2019-04-23T01:25:47.408Z,13.10
2019-04-23T01:28:36.307Z,13.10
2019-04-23T01:31:08.877Z,13.00
2019-04-23T01:33:39.095Z,13.10
2019-04-23T01:36:20.642Z,13.10
2019-04-23T01:38:41.706Z,13.10
2019-04-23T01:41:13.151Z,13.00
2019-04-23T01:43:42.833Z,12.90
2019-04-23T01:46:14.477Z,12.80
2019-04-23T01:48:48.606Z,12.70
2019-04-23T01:51:20.455Z,12.80
2019-04-23T01:56:27.432Z,12.70
2019-04-23T01:58:57.119Z,12.70
2019-04-23T02:01:25.718Z,12.60
2019-04-23T02:03:56.096Z,12.60
2019-04-23T02:06:29.691Z,12.60
2019-04-23T02:09:00.430Z,12.40
2019-04-23T02:11:47.459Z,12.20
2019-04-23T02:14:06.966Z,12.20
2019-04-23T02:19:03.352Z,12.40
2019-04-23T02:21:39.511Z,12.20
2019-04-23T02:24:30.522Z,12.20
2019-04-23T02:29:23.631Z,12.10
2019-04-23T02:34:31.031Z,12.20
2019-04-23T02:36:54.787Z,11.90
2019-04-23T02:39:34.863Z,11.90
2019-04-23T02:44:26.483Z,11.80
2019-04-23T03:02:35.086Z,11.60
2019-04-23T03:05:00.938Z,11.60
2019-04-23T03:09:58.790Z,11.50
2019-04-23T03:15:11.263Z,11.60
2019-04-23T03:18:12.194Z,11.60
2019-04-23T03:20:46.077Z,11.60
2019-04-23T03:23:34.930Z,11.30
2019-04-23T03:28:28.387Z,11.10
2019-04-23T03:38:41.924Z,10.90
2019-04-23T03:41:09.126Z,10.80
2019-04-23T03:43:39.390Z,10.80
2019-04-23T03:46:15.718Z,10.80
2019-04-23T03:51:03.400Z,10.60
2019-04-23T03:56:14.563Z,10.30
2019-04-23T03:58:42.371Z,10.20
2019-04-23T04:01:14.007Z,10.20
2019-04-23T04:06:26.874Z,10.10
2019-04-23T04:08:56.286Z,10.10
2019-04-23T04:11:21.705Z,10.00
2019-04-23T04:16:21.866Z,10.00
2019-04-23T04:18:57.339Z,10.00
2019-04-23T04:24:05.114Z,10.20
2019-04-23T04:26:37.920Z,10.20
2019-04-23T04:28:58.810Z,10.20
2019-04-23T04:31:45.695Z,10.10
2019-04-23T04:34:10.808Z,10.20
2019-04-23T04:36:45.048Z,10.30
2019-04-23T04:39:10.060Z,10.40
2019-04-23T04:41:48.347Z,10.50
2019-04-23T04:44:37.362Z,10.70
2019-04-23T04:49:15.129Z,10.90
2019-04-23T04:54:13.950Z,11.20
2019-04-23T04:56:45.065Z,11.30
2019-04-23T05:01:58.837Z,12.00
2019-04-23T05:07:04.224Z,11.90
2019-04-23T05:14:33.696Z,12.80
2019-04-23T05:16:57.412Z,13.00
2019-04-23T05:22:07.073Z,13.00
2019-04-23T05:27:02.516Z,13.20
2019-04-23T05:29:57.431Z,13.50
2019-04-23T05:32:10.097Z,14.20
2019-04-23T05:34:32.124Z,14.60
2019-04-23T05:37:07.073Z,15.10
2019-04-23T05:42:11.193Z,16.30
2019-04-23T05:44:43.322Z,17.30
2019-04-23T05:47:19.035Z,17.70
2019-04-23T05:49:37.802Z,18.20
2019-04-23T05:52:16.079Z,19.10
2019-04-23T05:54:43.292Z,19.90
2019-04-23T05:57:06.895Z,20.20
2019-04-23T05:59:45.168Z,20.00
2019-04-23T06:04:42.766Z,19.60
2019-04-23T06:07:28.965Z,18.80
2019-04-23T06:09:50.324Z,18.50
2019-04-23T06:12:16.436Z,18.80
2019-04-23T06:14:52.538Z,19.10
2019-04-23T06:17:29.877Z,18.90
2019-04-23T06:19:58.621Z,18.80
2019-04-23T06:22:30.992Z,18.70
2019-04-23T06:27:27.769Z,18.30
2019-04-23T06:29:57.103Z,18.50
2019-04-23T06:34:56.711Z,17.70
2019-04-23T06:40:01.076Z,18.10
2019-04-23T06:42:29.278Z,18.60
2019-04-23T06:45:01.279Z,18.60
2019-04-23T06:47:29.363Z,18.80
2019-04-23T06:50:00.243Z,19.30
2019-04-23T06:52:25.455Z,19.40
2019-04-23T06:55:09.302Z,19.70
2019-04-23T06:57:43.760Z,20.60
2019-04-23T07:00:06.297Z,20.30
2019-04-23T07:02:38.796Z,21.50
2019-04-23T07:05:13.948Z,22.50
2019-04-23T07:10:07.292Z,24.60
2019-04-23T07:12:42.984Z,24.30
2019-04-23T07:15:16.345Z,24.80
2019-04-23T07:17:34.291Z,23.90
2019-04-23T07:20:14.911Z,24.00
2019-04-23T07:25:46.814Z,24.30
2019-04-23T07:28:06.698Z,26.40
2019-04-23T07:33:08.221Z,27.50
2019-04-23T07:35:32.002Z,26.70
2019-04-23T07:38:21.940Z,28.50
2019-04-23T07:40:40.631Z,27.50
2019-04-23T07:43:18.352Z,27.30
2019-04-23T07:46:04.205Z,27.60
2019-04-23T07:48:16.498Z,26.00
2019-04-23T07:50:51.995Z,25.80
2019-04-23T07:53:29.293Z,26.50
2019-04-23T07:56:02.261Z,26.40
2019-04-23T07:58:41.413Z,27.40
2019-04-23T08:01:34.519Z,27.50
2019-04-23T08:06:19.288Z,26.50
2019-04-23T08:09:47.761Z,26.30
2019-04-23T08:12:19.630Z,27.60
2019-04-23T08:14:48.137Z,26.80
2019-04-23T08:17:18.953Z,26.00
2019-04-23T08:23:28.310Z,26.40
2019-04-23T08:26:29.899Z,26.90
2019-04-23T08:31:16.421Z,27.10
2019-04-23T08:33:53.061Z,27.70
2019-04-23T08:39:43.382Z,26.40
2019-04-23T08:42:33.379Z,24.30
2019-04-23T08:48:09.828Z,23.70
2019-04-23T08:50:42.552Z,22.60
2019-04-23T08:53:17.893Z,22.10
2019-04-23T08:55:41.393Z,23.10
2019-04-23T08:58:06.023Z,23.40
2019-04-23T09:00:47.669Z,23.40
2019-04-23T09:03:25.354Z,24.30
2019-04-23T09:05:44.794Z,24.70
2019-04-23T09:08:17.313Z,24.20
2019-04-23T09:15:44.555Z,23.20
2019-04-23T09:18:16.373Z,23.50
2019-04-23T09:20:39.450Z,23.80
2019-04-23T09:23:13.662Z,24.00
2019-04-23T09:25:49.871Z,24.30
2019-04-23T09:30:55.786Z,24.90
2019-04-23T09:36:30.702Z,24.70
2019-04-23T09:39:07.576Z,23.90
2019-04-23T09:41:53.645Z,23.90
2019-04-23T09:47:34.801Z,24.50
2019-04-23T09:50:01.708Z,24.20
2019-04-23T09:52:27.568Z,24.30
2019-04-23T09:55:11.107Z,25.30
2019-04-23T09:57:28.068Z,25.20
2019-04-23T10:00:03.241Z,24.00
2019-04-23T10:02:21.964Z,23.60
2019-04-23T10:04:48.696Z,24.10
2019-04-23T10:07:18.049Z,24.40
2019-04-23T10:09:34.498Z,24.20
2019-04-23T10:12:05.021Z,24.20
2019-04-23T10:14:34.525Z,24.10
2019-04-23T10:17:04.299Z,24.80
2019-04-23T10:19:33.028Z,24.50
2019-04-23T10:22:01.780Z,24.30
2019-04-23T10:24:31.015Z,24.90
2019-04-23T10:27:00.122Z,24.50
2019-04-23T10:29:34.146Z,24.90
2019-04-23T10:32:03.862Z,24.10
2019-04-23T10:34:42.992Z,23.90
2019-04-23T10:37:02.948Z,24.00
2019-04-23T10:39:35.767Z,24.90
2019-04-23T10:42:03.399Z,24.30
2019-04-23T10:44:40.701Z,24.30
2019-04-23T10:47:58.360Z,24.40
2019-04-23T10:50:51.481Z,23.80
2019-04-23T10:56:10.135Z,23.40
2019-04-23T10:58:32.118Z,23.70
2019-04-23T11:01:01.704Z,23.40
2019-04-23T11:08:30.945Z,23.70
2019-04-23T11:11:03.808Z,24.50
2019-04-23T11:13:40.926Z,24.50
2019-04-23T11:16:39.463Z,24.10
2019-04-23T11:18:46.763Z,24.10
2019-04-23T11:21:13.422Z,23.60
2019-04-23T11:23:42.522Z,23.60
2019-04-23T11:26:15.627Z,24.20
2019-04-23T11:28:38.276Z,23.70
2019-04-23T11:31:31.588Z,24.20
2019-04-23T11:34:00.971Z,24.30
2019-04-23T11:43:55.365Z,24.20
2019-04-23T11:46:48.469Z,23.90
2019-04-23T11:59:25.751Z,24.10
2019-04-23T12:02:07.140Z,24.00
2019-04-23T12:04:58.010Z,23.50
2019-04-23T12:07:52.029Z,23.70
2019-04-23T12:10:40.990Z,23.60
2019-04-23T12:13:03.233Z,23.30
2019-04-23T12:15:35.635Z,23.10
2019-04-23T12:18:11.095Z,23.10
2019-04-23T12:20:35.832Z,23.10
2019-04-23T12:23:18.970Z,23.10
2019-04-23T12:25:42.357Z,23.30
2019-04-23T12:28:06.584Z,23.60
2019-04-23T12:30:40.728Z,23.40
2019-04-23T12:33:31.636Z,23.40
2019-04-23T12:40:38.169Z,23.50
2019-04-23T12:45:50.466Z,23.30
2019-04-23T12:50:48.818Z,23.60
2019-04-23T12:53:23.705Z,23.20
2019-04-23T12:58:20.172Z,23.60
2019-04-23T13:00:39.958Z,23.60
2019-04-23T13:03:19.632Z,23.60
2019-04-23T13:05:44.446Z,23.40
2019-04-23T13:10:48.048Z,23.00
2019-04-23T13:13:23.825Z,23.10
2019-04-23T13:15:48.598Z,23.40
2019-04-23T13:18:26.815Z,23.30
2019-04-23T13:20:42.437Z,23.10
2019-04-23T13:23:27.459Z,23.10
2019-04-23T13:26:13.503Z,23.40
2019-04-23T13:28:45.334Z,23.40
2019-04-23T13:31:18.091Z,23.40
2019-04-23T13:36:29.641Z,23.20
2019-04-23T13:38:47.230Z,23.30
2019-04-23T13:41:20.060Z,22.90
2019-04-23T13:44:00.104Z,23.20
2019-04-23T13:46:20.018Z,22.90
2019-04-23T13:48:56.178Z,23.20
2019-04-23T13:51:25.778Z,23.40
2019-04-23T13:56:40.765Z,23.50
2019-04-23T13:59:09.371Z,23.60
2019-04-23T14:01:32.294Z,23.80
2019-04-23T14:04:11.954Z,23.60
2019-04-23T14:06:43.474Z,23.70
2019-04-23T14:09:22.329Z,23.70
2019-04-23T14:11:59.838Z,23.80
2019-04-23T14:14:24.995Z,23.60
2019-04-23T14:16:48.377Z,23.20
2019-04-23T14:19:06.879Z,23.40
2019-04-23T14:21:44.528Z,23.10
2019-04-23T14:26:48.903Z,23.30
2019-04-23T14:29:21.310Z,23.40
2019-04-23T14:31:54.211Z,23.80
2019-04-23T14:34:15.908Z,23.80
2019-04-23T14:36:57.840Z,23.40
2019-04-23T14:41:53.427Z,23.40
2019-04-23T14:44:51.531Z,23.50
2019-04-23T14:47:23.620Z,23.90
2019-04-23T14:50:18.653Z,23.80
2019-04-23T14:52:31.020Z,23.70
2019-04-23T14:55:33.953Z,23.50
2019-04-23T14:57:35.026Z,23.30
2019-04-23T15:00:03.699Z,23.50
2019-04-23T15:02:36.338Z,23.70
2019-04-23T15:05:09.714Z,23.50
2019-04-23T15:10:10.526Z,23.50
2019-04-23T15:15:10.478Z,23.40
2019-04-23T15:17:33.986Z,23.70
2019-04-23T15:20:11.913Z,23.30
2019-04-23T15:25:21.575Z,23.20
2019-04-23T15:29:58.313Z,23.40
2019-04-23T15:35:49.907Z,23.60
2019-04-23T15:37:58.370Z,23.10
2019-04-23T15:40:16.513Z,23.00
2019-04-23T15:42:50.793Z,23.00
2019-04-23T15:47:49.042Z,22.80
2019-04-23T15:52:51.517Z,23.20
2019-04-23T15:55:12.199Z,23.00
2019-04-23T15:58:05.475Z,23.00
2019-04-23T16:00:14.065Z,23.00
2019-04-23T16:02:19.354Z,23.10
2019-04-23T16:04:49.029Z,22.90
2019-04-23T16:07:38.153Z,23.10
2019-04-23T16:10:26.303Z,23.00
2019-04-23T16:12:51.642Z,22.90
2019-04-23T16:15:36.069Z,22.70
2019-04-23T16:18:22.102Z,22.60
2019-04-23T16:23:15.182Z,22.50
2019-04-23T16:25:43.101Z,22.40
2019-04-23T16:28:18.922Z,22.60
2019-04-23T16:31:12.997Z,22.60
2019-04-23T16:33:18.648Z,22.40
2019-04-23T16:36:05.579Z,22.30
2019-04-23T16:40:58.908Z,22.00
2019-04-23T16:43:28.331Z,22.10
2019-04-23T16:48:46.246Z,22.00
2019-04-23T16:53:30.003Z,22.00
2019-04-23T16:56:11.555Z,21.90
2019-04-23T16:58:44.177Z,21.90
2019-04-23T17:01:10.163Z,21.80
2019-04-23T17:03:37.881Z,21.90
2019-04-23T17:06:10.563Z,21.80
2019-04-23T17:08:52.573Z,21.70
2019-04-23T17:11:15.302Z,21.70
2019-04-23T17:13:37.576Z,21.70
2019-04-23T17:16:18.256Z,21.60
2019-04-23T17:18:44.244Z,21.50
2019-04-23T17:21:23.761Z,21.50
2019-04-23T17:23:45.908Z,21.40
2019-04-23T17:26:13.759Z,21.40
2019-04-23T17:28:36.127Z,21.40
2019-04-23T17:33:43.933Z,21.30
2019-04-23T17:39:04.622Z,21.20
2019-04-23T17:47:06.746Z,21.10
2019-04-23T17:49:33.506Z,21.00
2019-04-23T17:52:17.038Z,21.00
2019-04-23T17:54:41.437Z,20.90
2019-04-23T17:57:23.847Z,20.80
2019-04-23T18:00:25.147Z,20.80
2019-04-23T18:05:06.263Z,20.70
2019-04-23T18:07:41.040Z,20.70
2019-04-23T18:10:13.286Z,20.70
2019-04-23T18:12:38.836Z,20.60
2019-04-23T18:15:04.775Z,20.50
2019-04-23T18:17:35.657Z,20.40
2019-04-23T18:20:14.945Z,20.40
2019-04-23T18:22:49.160Z,20.30
2019-04-23T18:25:21.367Z,20.20
2019-04-23T18:27:50.849Z,20.10
2019-04-23T18:30:49.571Z,20.00
2019-04-23T18:33:49.270Z,19.90
2019-04-23T18:35:44.621Z,19.90
2019-04-23T18:38:25.999Z,19.80
2019-04-23T18:41:02.519Z,19.70
2019-04-23T18:45:59.443Z,19.60
2019-04-23T18:53:48.463Z,19.40
2019-04-23T19:01:27.998Z,19.20
2019-04-23T19:04:29.132Z,19.10
2019-04-23T19:06:39.737Z,19.00
2019-04-23T19:09:49.232Z,18.90
2019-04-23T19:12:36.302Z,18.80
2019-04-23T19:15:11.935Z,18.70
2019-04-23T19:20:14.667Z,18.60
2019-04-23T19:22:46.081Z,18.50
2019-04-23T19:25:20.818Z,18.60
2019-04-23T19:30:28.094Z,18.60
2019-04-23T19:33:05.590Z,18.50
2019-04-23T19:35:58.960Z,18.40
2019-04-23T19:38:13.629Z,18.30
2019-04-23T19:43:19.101Z,18.10
2019-04-23T19:45:56.808Z,18.00
2019-04-23T19:51:44.210Z,17.90
2019-04-23T19:53:32.277Z,17.80
2019-04-23T19:56:05.580Z,17.80
2019-04-23T19:58:34.169Z,18.00
2019-04-23T20:01:11.761Z,18.00
2019-04-23T20:03:35.792Z,18.10
2019-04-23T20:06:06.332Z,18.10
2019-04-23T20:08:49.100Z,18.10
2019-04-23T20:11:02.843Z,18.00
2019-04-23T20:13:49.565Z,18.10
2019-04-23T20:18:46.017Z,18.10
2019-04-23T20:21:03.424Z,18.00
2019-04-23T20:29:12.026Z,18.30
2019-04-23T20:34:33.529Z,18.30
2019-04-23T20:36:52.862Z,18.30
2019-04-23T20:39:33.237Z,18.30
2019-04-23T20:49:42.741Z,18.10
2019-04-23T20:54:50.963Z,18.10
2019-04-23T20:57:42.903Z,18.10
2019-04-23T21:03:25.313Z,18.00
2019-04-23T21:10:37.251Z,17.90
2019-04-23T21:13:16.046Z,17.80
2019-04-23T21:15:45.592Z,17.70
2019-04-23T21:18:18.903Z,17.70
2019-04-23T21:20:42.763Z,17.70
2019-04-23T21:23:11.218Z,17.70
2019-04-23T21:28:26.699Z,17.70
2019-04-23T21:36:13.376Z,17.50
2019-04-23T21:41:39.641Z,17.40
2019-04-23T21:46:41.707Z,17.30
2019-04-23T21:51:46.457Z,17.20
2019-04-23T21:56:37.251Z,17.10
2019-04-23T22:04:17.689Z,17.10
2019-04-23T22:06:42.952Z,17.10
2019-04-23T22:09:16.856Z,17.20
2019-04-23T22:19:27.884Z,17.20
2019-04-23T22:21:50.279Z,17.20
2019-04-23T22:24:39.860Z,17.20
2019-04-23T22:27:02.818Z,17.20
2019-04-23T22:31:56.601Z,17.20
2019-04-23T22:34:41.327Z,17.10
2019-04-23T22:39:39.973Z,17.10
2019-04-23T22:42:22.416Z,17.10
2019-04-23T22:44:57.456Z,17.00
2019-04-23T22:47:06.081Z,17.00
2019-04-23T22:52:21.664Z,17.00
2019-04-23T22:55:02.116Z,17.00
2019-04-23T22:57:44.185Z,17.00
2019-04-23T23:00:08.403Z,16.90
2019-04-23T23:02:58.274Z,16.90
2019-04-23T23:05:37.555Z,16.90
2019-04-23T23:08:01.612Z,16.90
2019-04-23T23:10:28.120Z,16.90
2019-04-23T23:13:05.864Z,16.80
2019-04-23T23:15:42.068Z,16.80
2019-04-23T23:18:16.668Z,16.80
2019-04-23T23:20:44.915Z,16.70
2019-04-23T23:23:13.172Z,16.80
2019-04-23T23:25:39.322Z,16.80
2019-04-23T23:30:57.984Z,16.80
2019-04-23T23:33:17.240Z,16.80
2019-04-23T23:35:57.246Z,16.80
2019-04-23T23:38:30.538Z,16.70
2019-04-23T23:41:03.612Z,16.60
2019-04-23T23:43:25.733Z,16.60
2019-04-23T23:46:03.371Z,16.40
2019-04-23T23:48:29.171Z,16.40
2019-04-23T23:51:15.784Z,16.30
2019-04-23T23:58:52.037Z,16.10
